Time;durP1;ratioP1;P1;durP2;ratioP2;P2;SDS_P1;SDS_P2;PMS_P1;PMS_P2;Temp;Humidity;BMP_temperature;BMP_pressure;BME280_temperature;BME280_humidity;BME280_pressure;Samples;Min_cycle;Max_cycle;Signal;HPM_P1;HPM_P2
2022/02/14 00:01:34;;;;;;;;;;;21.40;31.30;;;;;;484421;246;1165;-39
2022/02/14 00:03:35;;;;;;;;;;;21.30;31.30;;;;;;484105;246;1288;-39
2022/02/14 00:05:36;;;;;;;;;;;21.30;31.40;;;;;;484363;246;1100;-39
2022/02/14 00:07:37;;;;;;;;;;;21.30;31.30;;;;;;484466;246;1168;-39
2022/02/14 00:09:39;;;;;;;;;;;21.40;31.30;;;;;;484486;246;2207;-39
2022/02/14 00:11:40;;;;;;;;;;;21.30;31.30;;;;;;484445;246;1129;-39
2022/02/14 00:13:42;;;;;;;;;;;21.30;31.40;;;;;;484450;246;1051;-39
2022/02/14 00:15:43;;;;;;;;;;;21.40;31.40;;;;;;484196;246;1145;-39
2022/02/14 00:17:44;;;;;;;;;;;21.40;31.30;;;;;;484047;246;1246;-39
2022/02/14 00:19:50;;;;;;;;;;;21.40;31.30;;;;;;484467;246;1078;-39
2022/02/14 00:21:47;;;;;;;;;;;21.30;31.40;;;;;;483769;246;2225;-39
2022/02/14 00:23:49;;;;;;;;;;;21.30;31.40;;;;;;484014;246;1219;-39
2022/02/14 00:25:50;;;;;;;;;;;21.30;31.40;;;;;;484429;246;1405;-39
2022/02/14 00:27:51;;;;;;;;;;;21.30;31.40;;;;;;484296;246;1180;-39
2022/02/14 00:29:53;;;;;;;;;;;21.30;31.40;;;;;;484481;246;2132;-39
2022/02/14 00:31:54;;;;;;;;;;;21.30;31.40;;;;;;484249;246;1299;-39
2022/02/14 00:33:55;;;;;;;;;;;21.30;31.40;;;;;;483958;246;1214;-39
2022/02/14 00:35:57;;;;;;;;;;;21.30;31.40;;;;;;483952;246;1290;-39
2022/02/14 00:37:58;;;;;;;;;;;21.30;31.40;;;;;;483949;246;1202;-39
2022/02/14 00:40:00;;;;;;;;;;;21.30;31.40;;;;;;484236;246;1183;-39
2022/02/14 00:42:01;;;;;;;;;;;21.30;31.50;;;;;;484351;246;1187;-38
2022/02/14 00:44:02;;;;;;;;;;;21.30;31.40;;;;;;484484;246;1182;-39
2022/02/14 00:46:04;;;;;;;;;;;21.30;31.40;;;;;;484423;246;1207;-39
2022/02/14 00:48:05;;;;;;;;;;;21.30;31.40;;;;;;484066;246;1268;-39
2022/02/14 00:50:08;;;;;;;;;;;21.20;31.40;;;;;;484480;246;2128;-39
2022/02/14 00:52:08;;;;;;;;;;;21.30;31.50;;;;;;484311;246;1560;-39
2022/02/14 00:54:09;;;;;;;;;;;21.40;31.40;;;;;;484435;246;1152;-39
2022/02/14 00:56:10;;;;;;;;;;;21.30;31.30;;;;;;484279;246;1193;-39
2022/02/14 00:58:14;;;;;;;;;;;21.40;31.30;;;;;;484494;246;1099;-39
2022/02/14 01:00:13;;;;;;;;;;;21.30;31.30;;;;;;484128;246;2047;-39
2022/02/14 01:02:14;;;;;;;;;;;21.30;31.30;;;;;;484410;246;1277;-39
2022/02/14 01:04:16;;;;;;;;;;;21.30;31.30;;;;;;484140;246;1212;-39
2022/02/14 01:06:19;;;;;;;;;;;21.30;31.40;;;;;;484433;246;1193;-39
2022/02/14 01:08:18;;;;;;;;;;;21.30;31.40;;;;;;484366;246;2272;-39
2022/02/14 01:10:20;;;;;;;;;;;21.30;31.40;;;;;;484471;246;2131;-39
2022/02/14 01:12:21;;;;;;;;;;;21.30;31.30;;;;;;484431;246;1147;-39
2022/02/14 01:14:22;;;;;;;;;;;21.30;31.30;;;;;;484202;246;1192;-39
2022/02/14 01:16:24;;;;;;;;;;;21.30;31.40;;;;;;484340;246;1279;-39
2022/02/14 01:18:25;;;;;;;;;;;21.30;31.30;;;;;;484246;246;1177;-39
2022/02/14 01:20:27;;;;;;;;;;;21.30;31.30;;;;;;483982;246;1253;-39
2022/02/14 01:22:28;;;;;;;;;;;21.30;31.40;;;;;;484330;246;1228;-39
2022/02/14 01:24:29;;;;;;;;;;;21.30;31.40;;;;;;484366;246;1235;-39
2022/02/14 01:29:21;;;;;;;;;;;21.30;31.30;;;;;;484051;246;2133;-39
2022/02/14 01:31:26;;;;;;;;;;;21.40;31.30;;;;;;484036;246;2116;-39
2022/02/14 01:33:27;;;;;;;;;;;21.30;31.30;;;;;;484376;246;1308;-39
2022/02/14 01:35:28;;;;;;;;;;;21.30;31.30;;;;;;484423;246;1079;-39
2022/02/14 01:37:31;;;;;;;;;;;21.30;31.30;;;;;;484279;246;1531;-39
2022/02/14 01:39:31;;;;;;;;;;;21.30;31.30;;;;;;484449;246;2283;-39
2022/02/14 01:41:32;;;;;;;;;;;21.30;31.30;;;;;;483950;246;1198;-39
2022/02/14 01:43:34;;;;;;;;;;;21.30;31.40;;;;;;484014;246;1073;-39
2022/02/14 01:45:35;;;;;;;;;;;21.30;31.40;;;;;;484463;246;1034;-39
2022/02/14 01:47:36;;;;;;;;;;;21.30;31.40;;;;;;483903;246;1475;-39
2022/02/14 01:49:38;;;;;;;;;;;21.30;31.30;;;;;;484186;246;1203;-39
2022/02/14 01:51:39;;;;;;;;;;;21.30;31.30;;;;;;483982;242;2112;-39
2022/02/14 01:53:41;;;;;;;;;;;21.30;31.30;;;;;;484022;246;1206;-39
2022/02/14 01:55:42;;;;;;;;;;;21.30;31.30;;;;;;484311;246;1112;-39
2022/02/14 01:57:44;;;;;;;;;;;21.30;31.30;;;;;;484282;246;1048;-39
2022/02/14 01:59:45;;;;;;;;;;;21.30;31.30;;;;;;484546;246;1020;-39
2022/02/14 02:01:46;;;;;;;;;;;21.30;31.30;;;;;;484008;246;1333;-39
2022/02/14 02:03:48;;;;;;;;;;;21.30;31.30;;;;;;484425;246;1155;-39
2022/02/14 02:05:49;;;;;;;;;;;21.30;31.30;;;;;;484450;246;1241;-39
2022/02/14 02:07:51;;;;;;;;;;;21.30;31.30;;;;;;484432;246;1156;-39
2022/02/14 02:09:53;;;;;;;;;;;21.30;31.30;;;;;;484442;246;1093;-39
2022/02/14 02:14:14;;;;;;;;;;;21.30;31.30;;;;;;484380;246;1060;-39
2022/02/14 02:16:15;;;;;;;;;;;21.30;31.30;;;;;;483987;246;1317;-39
2022/02/14 02:18:16;;;;;;;;;;;21.30;31.30;;;;;;484008;246;1207;-39
2022/02/14 02:20:18;;;;;;;;;;;21.40;31.30;;;;;;484161;246;1214;-39
2022/02/14 02:22:19;;;;;;;;;;;21.30;31.30;;;;;;484345;246;1143;-39
2022/02/14 02:24:20;;;;;;;;;;;21.30;31.30;;;;;;484524;246;1186;-39
2022/02/14 02:26:21;;;;;;;;;;;21.30;31.30;;;;;;484341;242;1247;-39
2022/02/14 02:28:23;;;;;;;;;;;21.30;31.40;;;;;;484486;246;1171;-39
2022/02/14 02:30:24;;;;;;;;;;;21.20;31.40;;;;;;484077;246;2196;-39
2022/02/14 02:32:25;;;;;;;;;;;21.30;31.40;;;;;;484128;246;1633;-39
2022/02/14 02:34:27;;;;;;;;;;;21.20;31.30;;;;;;484377;246;1314;-39
2022/02/14 02:36:28;;;;;;;;;;;21.30;31.40;;;;;;484168;246;1336;-39
2022/02/14 02:38:29;;;;;;;;;;;21.30;31.30;;;;;;484037;246;1168;-39
2022/02/14 02:40:31;;;;;;;;;;;21.30;31.40;;;;;;484529;246;1167;-39
2022/02/14 02:42:32;;;;;;;;;;;21.30;31.30;;;;;;483993;246;1286;-39
2022/02/14 02:44:33;;;;;;;;;;;21.30;31.40;;;;;;484481;246;1040;-39
2022/02/14 02:46:35;;;;;;;;;;;21.30;31.40;;;;;;484272;246;1358;-39
2022/02/14 02:48:36;;;;;;;;;;;21.30;31.40;;;;;;484071;246;1020;-39
2022/02/14 02:51:01;;;;;;;;;;;21.20;31.40;;;;;;484186;246;2200;-39
2022/02/14 02:52:39;;;;;;;;;;;21.20;31.40;;;;;;483158;246;1604;-39
2022/02/14 02:54:41;;;;;;;;;;;21.30;31.40;;;;;;484411;246;1077;-39
2022/02/14 02:56:42;;;;;;;;;;;21.30;31.40;;;;;;484369;246;1183;-39
2022/02/14 02:58:43;;;;;;;;;;;21.20;31.30;;;;;;483982;246;1104;-39
2022/02/14 03:00:45;;;;;;;;;;;21.20;31.40;;;;;;484052;246;1101;-39
2022/02/14 03:02:46;;;;;;;;;;;21.30;31.40;;;;;;483964;246;1114;-39
2022/02/14 03:04:47;;;;;;;;;;;21.30;31.40;;;;;;484050;246;1203;-39
2022/02/14 03:06:49;;;;;;;;;;;21.30;31.30;;;;;;484211;246;1146;-39
2022/02/14 03:08:50;;;;;;;;;;;21.30;31.40;;;;;;484501;246;1185;-39
2022/02/14 03:10:51;;;;;;;;;;;21.30;31.30;;;;;;484505;246;2128;-39
2022/02/14 03:12:53;;;;;;;;;;;21.30;31.30;;;;;;484037;246;1212;-39
2022/02/14 03:14:54;;;;;;;;;;;21.20;31.30;;;;;;484417;246;1155;-39
2022/02/14 03:16:55;;;;;;;;;;;21.30;31.40;;;;;;484022;246;1338;-39
2022/02/14 03:18:56;;;;;;;;;;;21.30;31.30;;;;;;484084;246;1167;-39
2022/02/14 03:20:58;;;;;;;;;;;21.30;31.30;;;;;;484036;246;1362;-39
2022/02/14 03:22:59;;;;;;;;;;;21.30;31.40;;;;;;484403;246;1634;-39
2022/02/14 03:25:00;;;;;;;;;;;21.30;31.40;;;;;;484034;246;1078;-39
2022/02/14 03:27:02;;;;;;;;;;;21.30;31.30;;;;;;483974;246;1255;-39
2022/02/14 03:29:03;;;;;;;;;;;21.30;31.40;;;;;;484202;246;1210;-39
2022/02/14 03:31:04;;;;;;;;;;;21.30;31.30;;;;;;484319;246;2184;-39
2022/02/14 03:33:06;;;;;;;;;;;21.30;31.30;;;;;;484180;246;1548;-39
2022/02/14 03:35:07;;;;;;;;;;;21.30;31.30;;;;;;484271;246;1145;-39
2022/02/14 03:37:09;;;;;;;;;;;21.30;31.40;;;;;;484496;242;1330;-39
2022/02/14 03:39:11;;;;;;;;;;;21.30;31.30;;;;;;484501;246;1369;-39
2022/02/14 03:41:11;;;;;;;;;;;21.20;31.30;;;;;;484470;242;2370;-39
2022/02/14 03:43:13;;;;;;;;;;;21.20;31.40;;;;;;484519;246;1170;-39
2022/02/14 03:45:14;;;;;;;;;;;21.30;31.40;;;;;;484304;246;1264;-39
2022/02/14 03:47:15;;;;;;;;;;;21.30;31.30;;;;;;484146;246;1236;-39
2022/02/14 03:49:17;;;;;;;;;;;21.30;31.30;;;;;;484064;246;1252;-39
2022/02/14 03:51:18;;;;;;;;;;;21.20;31.30;;;;;;484163;246;2160;-39
2022/02/14 03:53:19;;;;;;;;;;;21.30;31.30;;;;;;483949;246;1187;-39
2022/02/14 03:55:21;;;;;;;;;;;21.20;31.30;;;;;;484054;246;1340;-39
2022/02/14 03:57:23;;;;;;;;;;;21.30;31.30;;;;;;484149;246;1655;-39
2022/02/14 03:59:24;;;;;;;;;;;21.20;31.20;;;;;;484460;246;1070;-39
2022/02/14 04:01:25;;;;;;;;;;;21.20;31.30;;;;;;484164;246;1235;-39
2022/02/14 04:03:27;;;;;;;;;;;21.30;31.30;;;;;;484478;246;1222;-39
2022/02/14 04:05:28;;;;;;;;;;;21.30;31.30;;;;;;484402;246;1230;-39
2022/02/14 04:07:29;;;;;;;;;;;21.30;31.30;;;;;;484116;246;1193;-39
2022/02/14 04:09:31;;;;;;;;;;;21.30;31.30;;;;;;484041;246;1203;-39
2022/02/14 04:11:32;;;;;;;;;;;21.30;31.30;;;;;;484063;246;2196;-39
2022/02/14 04:13:33;;;;;;;;;;;21.30;31.30;;;;;;484029;246;1245;-39
2022/02/14 04:15:35;;;;;;;;;;;21.20;31.30;;;;;;484476;246;1048;-39
2022/02/14 04:17:36;;;;;;;;;;;21.30;31.30;;;;;;483968;246;1150;-39
2022/02/14 04:19:38;;;;;;;;;;;21.20;31.30;;;;;;484073;246;1067;-39
2022/02/14 04:21:39;;;;;;;;;;;21.30;31.30;;;;;;484183;246;1295;-39
2022/02/14 04:23:40;;;;;;;;;;;21.20;31.30;;;;;;484237;246;1150;-39
2022/02/14 04:25:42;;;;;;;;;;;21.20;31.30;;;;;;484501;246;1121;-39
2022/02/14 04:27:43;;;;;;;;;;;21.30;31.40;;;;;;484038;246;1247;-39
2022/02/14 04:29:44;;;;;;;;;;;21.20;31.30;;;;;;484042;246;1037;-39
2022/02/14 04:31:46;;;;;;;;;;;21.20;31.30;;;;;;483941;246;2188;-39
2022/02/14 04:33:47;;;;;;;;;;;21.20;31.30;;;;;;484448;246;1062;-39
2022/02/14 04:35:48;;;;;;;;;;;21.20;31.40;;;;;;484351;246;1282;-39
2022/02/14 04:37:50;;;;;;;;;;;21.20;31.30;;;;;;484114;246;1068;-39
2022/02/14 04:39:51;;;;;;;;;;;21.20;31.40;;;;;;484100;246;1034;-39
2022/02/14 04:41:52;;;;;;;;;;;21.20;31.40;;;;;;484130;246;1298;-39
2022/02/14 04:43:54;;;;;;;;;;;21.20;31.30;;;;;;484012;246;1095;-39
2022/02/14 04:45:55;;;;;;;;;;;21.20;31.30;;;;;;483929;243;1358;-39
2022/02/14 04:47:56;;;;;;;;;;;21.20;31.30;;;;;;483971;246;1127;-39
2022/02/14 04:49:58;;;;;;;;;;;21.20;31.30;;;;;;484436;246;1056;-39
2022/02/14 04:51:59;;;;;;;;;;;21.30;31.40;;;;;;484063;246;2149;-39
2022/02/14 04:54:01;;;;;;;;;;;21.30;31.30;;;;;;484362;246;1046;-39
2022/02/14 04:56:02;;;;;;;;;;;21.20;31.30;;;;;;484107;242;1394;-39
2022/02/14 04:58:03;;;;;;;;;;;21.20;31.30;;;;;;484099;246;1058;-39
2022/02/14 05:00:05;;;;;;;;;;;21.20;31.30;;;;;;484474;246;1197;-39
2022/02/14 05:02:06;;;;;;;;;;;21.20;31.30;;;;;;484328;246;1226;-39
2022/02/14 05:04:07;;;;;;;;;;;21.30;31.30;;;;;;484386;246;1203;-39
2022/02/14 05:06:09;;;;;;;;;;;21.30;31.30;;;;;;483933;246;1480;-39
2022/02/14 05:08:10;;;;;;;;;;;21.20;31.30;;;;;;483779;246;2186;-39
2022/02/14 05:10:11;;;;;;;;;;;21.20;31.30;;;;;;484120;246;1105;-39
2022/02/14 05:12:13;;;;;;;;;;;21.20;31.30;;;;;;483793;246;2204;-39
2022/02/14 05:14:14;;;;;;;;;;;21.20;31.30;;;;;;484015;246;1191;-39
2022/02/14 05:16:15;;;;;;;;;;;21.20;31.30;;;;;;484234;246;1113;-39
2022/02/14 05:18:17;;;;;;;;;;;21.20;31.30;;;;;;483950;246;1207;-39
2022/02/14 05:20:18;;;;;;;;;;;21.30;31.30;;;;;;484386;246;1077;-39
2022/02/14 05:22:19;;;;;;;;;;;21.20;31.30;;;;;;484076;246;1177;-39
2022/02/14 05:24:21;;;;;;;;;;;21.20;31.30;;;;;;484028;246;1100;-39
2022/02/14 05:26:22;;;;;;;;;;;21.20;31.30;;;;;;483844;242;2087;-39
2022/02/14 05:28:23;;;;;;;;;;;21.30;31.30;;;;;;483845;246;1248;-39
2022/02/14 05:30:25;;;;;;;;;;;21.20;31.20;;;;;;483945;246;1063;-39
2022/02/14 05:32:26;;;;;;;;;;;21.30;31.30;;;;;;483914;246;2128;-39
2022/02/14 05:34:27;;;;;;;;;;;21.30;31.30;;;;;;484095;246;1169;-39
2022/02/14 05:36:28;;;;;;;;;;;21.20;31.30;;;;;;484037;246;1321;-39
2022/02/14 05:38:30;;;;;;;;;;;21.20;31.30;;;;;;484117;246;1225;-39
2022/02/14 05:40:31;;;;;;;;;;;21.20;31.30;;;;;;483887;246;1168;-39
2022/02/14 05:42:32;;;;;;;;;;;21.20;31.30;;;;;;483891;246;1213;-39
2022/02/14 05:44:34;;;;;;;;;;;21.30;31.30;;;;;;483798;246;1072;-39
2022/02/14 05:46:35;;;;;;;;;;;21.30;31.30;;;;;;483874;246;1306;-39
2022/02/14 05:48:36;;;;;;;;;;;21.20;31.20;;;;;;483891;246;1576;-39
2022/02/14 05:50:38;;;;;;;;;;;21.30;31.30;;;;;;484044;246;1136;-39
2022/02/14 05:52:39;;;;;;;;;;;21.20;31.30;;;;;;483997;246;2114;-39
2022/02/14 05:54:41;;;;;;;;;;;21.30;31.30;;;;;;484294;246;1188;-39
2022/02/14 05:56:42;;;;;;;;;;;21.30;31.20;;;;;;483856;246;1303;-39
2022/02/14 05:58:44;;;;;;;;;;;21.30;31.30;;;;;;484180;246;1048;-39
2022/02/14 06:00:45;;;;;;;;;;;21.20;31.20;;;;;;483990;246;1139;-39
2022/02/14 06:02:46;;;;;;;;;;;21.20;31.30;;;;;;483852;246;1180;-39
2022/02/14 06:04:47;;;;;;;;;;;21.20;31.30;;;;;;484026;246;1326;-39
2022/02/14 06:06:49;;;;;;;;;;;21.20;31.20;;;;;;483836;246;1225;-39
2022/02/14 06:08:50;;;;;;;;;;;21.30;31.30;;;;;;483806;246;1093;-39
2022/02/14 06:10:51;;;;;;;;;;;21.30;31.30;;;;;;483730;246;1455;-39
2022/02/14 06:12:53;;;;;;;;;;;21.20;31.20;;;;;;483709;246;2207;-39
2022/02/14 06:14:54;;;;;;;;;;;21.30;31.20;;;;;;484144;246;1086;-39
2022/02/14 06:16:56;;;;;;;;;;;21.30;31.20;;;;;;483636;246;1494;-39
2022/02/14 06:18:57;;;;;;;;;;;21.30;31.20;;;;;;483735;246;1162;-39
2022/02/14 06:20:58;;;;;;;;;;;21.20;31.20;;;;;;483981;246;1342;-39
2022/02/14 06:23:00;;;;;;;;;;;21.30;31.20;;;;;;483659;246;1204;-39
2022/02/14 06:25:01;;;;;;;;;;;21.20;31.30;;;;;;483740;246;1200;-39
2022/02/14 06:27:02;;;;;;;;;;;21.20;31.20;;;;;;483724;246;1339;-39
2022/02/14 06:29:04;;;;;;;;;;;21.20;31.20;;;;;;483913;246;1192;-39
2022/02/14 06:31:05;;;;;;;;;;;21.30;31.30;;;;;;483766;246;2157;-39
2022/02/14 06:33:06;;;;;;;;;;;21.20;31.30;;;;;;483517;246;2208;-39
2022/02/14 06:35:08;;;;;;;;;;;21.20;31.30;;;;;;483758;246;1198;-39
2022/02/14 06:37:09;;;;;;;;;;;21.30;31.30;;;;;;483684;246;1054;-39
2022/02/14 06:39:10;;;;;;;;;;;21.20;31.30;;;;;;483720;246;1385;-39
2022/02/14 06:41:12;;;;;;;;;;;21.20;31.30;;;;;;483834;246;1133;-39
2022/02/14 06:43:13;;;;;;;;;;;21.20;31.20;;;;;;483670;246;1152;-39
2022/02/14 06:45:15;;;;;;;;;;;21.20;31.30;;;;;;483688;246;1148;-39
2022/02/14 06:47:16;;;;;;;;;;;21.20;31.30;;;;;;483695;246;1238;-39
2022/02/14 06:49:17;;;;;;;;;;;21.20;31.30;;;;;;483604;246;1222;-39
2022/02/14 06:51:19;;;;;;;;;;;21.20;31.30;;;;;;483721;246;1258;-39
2022/02/14 06:53:20;;;;;;;;;;;21.30;31.30;;;;;;483631;246;2121;-39
2022/02/14 06:55:21;;;;;;;;;;;21.30;31.30;;;;;;483686;246;1095;-39
2022/02/14 06:57:22;;;;;;;;;;;21.30;31.20;;;;;;483732;246;1267;-39
2022/02/14 06:59:24;;;;;;;;;;;21.20;31.20;;;;;;483693;246;1246;-39
2022/02/14 07:01:25;;;;;;;;;;;21.30;31.30;;;;;;483507;246;1426;-39
2022/02/14 07:03:26;;;;;;;;;;;21.20;31.30;;;;;;483502;246;1155;-39
2022/02/14 07:05:28;;;;;;;;;;;21.20;31.20;;;;;;483593;246;1616;-39
2022/02/14 07:07:30;;;;;;;;;;;21.20;31.20;;;;;;483491;246;1165;-39
2022/02/14 07:09:30;;;;;;;;;;;21.20;31.20;;;;;;483393;246;2000;-39
2022/02/14 07:11:32;;;;;;;;;;;21.20;31.30;;;;;;483431;246;1273;-39
2022/02/14 07:13:33;;;;;;;;;;;21.20;31.30;;;;;;483600;246;2128;-39
2022/02/14 07:15:34;;;;;;;;;;;21.20;31.30;;;;;;483542;246;1072;-39
2022/02/14 07:17:36;;;;;;;;;;;21.20;31.30;;;;;;483535;246;1300;-39
2022/02/14 07:19:38;;;;;;;;;;;21.20;31.20;;;;;;483653;246;1244;-39
2022/02/14 07:21:39;;;;;;;;;;;21.20;31.20;;;;;;483482;246;1274;-39
2022/02/14 07:23:40;;;;;;;;;;;21.20;31.20;;;;;;483471;246;1154;-39
2022/02/14 07:25:41;;;;;;;;;;;21.30;31.10;;;;;;483476;246;1331;-39
2022/02/14 07:27:43;;;;;;;;;;;21.30;31.10;;;;;;483544;246;1181;-39
2022/02/14 07:29:44;;;;;;;;;;;21.30;31.10;;;;;;483509;246;1213;-39
2022/02/14 07:31:45;;;;;;;;;;;21.30;31.00;;;;;;483355;246;1355;-39
2022/02/14 07:33:46;;;;;;;;;;;21.30;31.00;;;;;;483566;246;2168;-39
2022/02/14 07:35:48;;;;;;;;;;;21.20;31.00;;;;;;483469;246;1320;-39
2022/02/14 07:37:49;;;;;;;;;;;21.30;31.00;;;;;;483461;246;1284;-39
2022/02/14 07:39:50;;;;;;;;;;;21.30;30.90;;;;;;483478;246;1235;-39
2022/02/14 07:41:52;;;;;;;;;;;21.30;30.90;;;;;;483484;246;1321;-39
2022/02/14 07:43:53;;;;;;;;;;;21.30;30.90;;;;;;483362;246;1218;-39
2022/02/14 07:45:55;;;;;;;;;;;21.20;30.90;;;;;;483399;246;1125;-39
2022/02/14 07:47:56;;;;;;;;;;;21.20;30.90;;;;;;483461;246;1169;-39
2022/02/14 07:49:58;;;;;;;;;;;21.20;31.00;;;;;;483359;246;1164;-39
2022/02/14 07:51:59;;;;;;;;;;;21.20;30.90;;;;;;483315;246;1323;-39
2022/02/14 07:54:00;;;;;;;;;;;21.20;30.90;;;;;;483386;246;2172;-39
2022/02/14 07:56:02;;;;;;;;;;;21.30;30.90;;;;;;483347;246;1424;-39
2022/02/14 07:58:03;;;;;;;;;;;21.20;30.80;;;;;;483294;246;1333;-39
2022/02/14 08:00:08;;;;;;;;;;;21.20;30.80;;;;;;483384;246;1131;-39
2022/02/14 08:02:09;;;;;;;;;;;21.20;30.90;;;;;;483296;246;1166;-39
2022/02/14 08:04:10;;;;;;;;;;;21.20;30.80;;;;;;483472;246;1244;-39
2022/02/14 08:06:12;;;;;;;;;;;21.20;30.80;;;;;;483364;246;1311;-39
2022/02/14 08:08:13;;;;;;;;;;;21.20;30.80;;;;;;483344;246;1235;-39
2022/02/14 08:10:15;;;;;;;;;;;21.20;30.70;;;;;;483362;246;1187;-39
2022/02/14 08:12:16;;;;;;;;;;;21.20;30.70;;;;;;483343;246;2204;-39
2022/02/14 08:14:18;;;;;;;;;;;21.20;30.70;;;;;;483249;246;1130;-39
2022/02/14 08:16:19;;;;;;;;;;;21.30;30.70;;;;;;483095;246;1330;-39
2022/02/14 08:18:20;;;;;;;;;;;21.30;30.70;;;;;;483590;246;2152;-39
2022/02/14 08:20:21;;;;;;;;;;;21.30;30.60;;;;;;483417;246;1277;-39
2022/02/14 08:22:22;;;;;;;;;;;21.30;30.60;;;;;;483297;246;1192;-39
2022/02/14 08:24:24;;;;;;;;;;;21.20;30.60;;;;;;483313;246;1197;-39
2022/02/14 08:26:25;;;;;;;;;;;21.20;30.70;;;;;;483388;246;1397;-39
2022/02/14 08:28:28;;;;;;;;;;;21.20;30.70;;;;;;483211;246;1176;-39
2022/02/14 08:30:28;;;;;;;;;;;21.20;30.70;;;;;;483072;246;2070;-39
2022/02/14 08:32:29;;;;;;;;;;;21.20;30.70;;;;;;483331;246;2192;-39
2022/02/14 08:34:30;;;;;;;;;;;21.20;30.70;;;;;;483450;246;1089;-39
2022/02/14 08:36:32;;;;;;;;;;;21.20;30.60;;;;;;483447;246;1557;-39
2022/02/14 08:38:35;;;;;;;;;;;21.20;30.60;;;;;;483407;246;1260;-39
2022/02/14 08:40:34;;;;;;;;;;;21.20;30.60;;;;;;483092;246;2441;-39
2022/02/14 08:42:36;;;;;;;;;;;21.20;30.50;;;;;;483408;246;1170;-39
2022/02/14 08:44:37;;;;;;;;;;;21.30;30.50;;;;;;483312;246;1139;-39
2022/02/14 08:46:39;;;;;;;;;;;21.20;30.50;;;;;;483338;246;1350;-39
2022/02/14 08:48:40;;;;;;;;;;;21.30;30.40;;;;;;483399;246;1107;-39
2022/02/14 08:50:42;;;;;;;;;;;21.30;30.40;;;;;;483338;246;1235;-39
2022/02/14 08:52:43;;;;;;;;;;;21.30;30.40;;;;;;483313;246;2113;-39
2022/02/14 08:54:44;;;;;;;;;;;21.30;30.30;;;;;;483344;246;1214;-39
2022/02/14 08:56:46;;;;;;;;;;;21.30;30.40;;;;;;483346;246;1315;-39
2022/02/14 08:58:47;;;;;;;;;;;21.30;30.40;;;;;;483194;246;1223;-39
2022/02/14 09:00:50;;;;;;;;;;;21.20;30.30;;;;;;483293;246;1328;-39
2022/02/14 09:02:50;;;;;;;;;;;21.20;30.30;;;;;;483412;246;2202;-39
2022/02/14 09:04:52;;;;;;;;;;;21.20;30.30;;;;;;483331;246;1263;-39
2022/02/14 09:06:53;;;;;;;;;;;21.30;30.30;;;;;;483257;246;1228;-39
2022/02/14 09:08:54;;;;;;;;;;;21.30;30.30;;;;;;483440;246;1118;-39
2022/02/14 09:10:58;;;;;;;;;;;21.30;30.30;;;;;;483315;246;1283;-39
2022/02/14 09:12:57;;;;;;;;;;;21.20;30.30;;;;;;483366;246;2201;-39
2022/02/14 09:14:59;;;;;;;;;;;21.20;30.20;;;;;;483228;246;1335;-39
2022/02/14 09:17:00;;;;;;;;;;;21.30;30.30;;;;;;483321;246;1201;-39
2022/02/14 09:19:01;;;;;;;;;;;21.30;30.20;;;;;;483318;246;1126;-39
2022/02/14 09:21:03;;;;;;;;;;;21.20;30.20;;;;;;483143;246;1336;-39
2022/02/14 09:23:04;;;;;;;;;;;21.30;30.20;;;;;;483333;246;1147;-39
2022/02/14 09:25:05;;;;;;;;;;;21.30;30.10;;;;;;483314;246;1114;-39
2022/02/14 09:27:07;;;;;;;;;;;21.30;30.20;;;;;;483454;246;1209;-39
2022/02/14 09:29:08;;;;;;;;;;;21.20;30.10;;;;;;483238;246;1094;-39
2022/02/14 09:31:10;;;;;;;;;;;21.20;30.20;;;;;;483233;246;1412;-39
2022/02/14 09:33:11;;;;;;;;;;;21.20;30.10;;;;;;483420;246;2204;-39
2022/02/14 09:35:25;;;;;;;;;;;21.20;30.10;;;;;;483128;246;1141;-39
2022/02/14 09:37:15;;;;;;;;;;;21.30;30.20;;;;;;482472;246;1890;-39
2022/02/14 09:39:15;;;;;;;;;;;21.20;30.00;;;;;;483313;246;1644;-39
2022/02/14 09:41:17;;;;;;;;;;;21.20;30.00;;;;;;483208;246;1327;-39
2022/02/14 09:43:18;;;;;;;;;;;21.20;30.00;;;;;;483251;246;1182;-39
2022/02/14 09:45:22;;;;;;;;;;;21.20;30.10;;;;;;483208;246;1338;-39
2022/02/14 09:47:21;;;;;;;;;;;21.20;30.10;;;;;;483163;246;2258;-39
2022/02/14 09:49:22;;;;;;;;;;;21.20;30.10;;;;;;483258;246;1463;-39
2022/02/14 09:51:23;;;;;;;;;;;21.20;30.00;;;;;;483139;246;1703;-39
2022/02/14 09:53:25;;;;;;;;;;;21.20;30.00;;;;;;483975;246;2247;-39
2022/02/14 09:55:26;;;;;;;;;;;21.30;30.00;;;;;;483075;246;1183;-39
2022/02/14 09:57:28;;;;;;;;;;;21.20;30.00;;;;;;483303;246;1671;-39
2022/02/14 09:59:29;;;;;;;;;;;21.30;30.00;;;;;;484040;246;878;-39
2022/02/14 10:01:31;;;;;;;;;;;21.20;30.00;;;;;;483507;242;1180;-39
2022/02/14 10:03:33;;;;;;;;;;;21.20;30.00;;;;;;483514;246;2011;-39
2022/02/14 10:05:33;;;;;;;;;;;21.20;30.00;;;;;;483045;246;1707;-39
2022/02/14 10:07:34;;;;;;;;;;;21.20;30.00;;;;;;483422;246;1201;-39
2022/02/14 10:09:36;;;;;;;;;;;21.20;30.00;;;;;;483755;246;1324;-39
2022/02/14 10:11:39;;;;;;;;;;;21.20;30.00;;;;;;483339;246;1306;-39
2022/02/14 10:13:39;;;;;;;;;;;21.20;30.00;;;;;;483149;246;2188;-39
2022/02/14 10:15:40;;;;;;;;;;;21.20;29.90;;;;;;483076;246;1335;-39
2022/02/14 10:17:41;;;;;;;;;;;21.20;29.90;;;;;;482906;246;1268;-39
2022/02/14 10:19:45;;;;;;;;;;;21.30;29.90;;;;;;483131;246;1183;-39
2022/02/14 10:21:44;;;;;;;;;;;21.20;29.90;;;;;;483033;246;1450;-39
2022/02/14 10:23:45;;;;;;;;;;;21.20;29.90;;;;;;483288;246;1224;-39
2022/02/14 10:25:47;;;;;;;;;;;21.20;29.90;;;;;;483300;246;1627;-39
2022/02/14 10:27:48;;;;;;;;;;;21.20;29.90;;;;;;483328;246;1194;-39
2022/02/14 10:29:49;;;;;;;;;;;21.20;29.80;;;;;;483216;246;1103;-39
2022/02/14 10:31:51;;;;;;;;;;;21.20;29.80;;;;;;483108;246;1381;-39
2022/02/14 10:33:52;;;;;;;;;;;21.20;29.80;;;;;;483929;246;2180;-39
2022/02/14 10:35:53;;;;;;;;;;;21.20;29.90;;;;;;483311;246;1394;-39
2022/02/14 10:37:55;;;;;;;;;;;21.20;29.90;;;;;;483616;246;1182;-39
2022/02/14 10:39:56;;;;;;;;;;;21.10;29.90;;;;;;484035;246;873;-39
2022/02/14 10:41:57;;;;;;;;;;;21.10;29.90;;;;;;483371;246;1269;-39
2022/02/14 10:43:58;;;;;;;;;;;21.20;29.90;;;;;;484019;246;871;-39
2022/02/14 10:46:00;;;;;;;;;;;21.20;29.90;;;;;;483317;246;1423;-39
2022/02/14 10:48:04;;;;;;;;;;;21.20;29.80;;;;;;483105;246;1366;-39
2022/02/14 10:50:04;;;;;;;;;;;21.20;29.80;;;;;;483151;246;1996;-39
2022/02/14 10:52:05;;;;;;;;;;;21.10;29.80;;;;;;483201;246;1308;-39
2022/02/14 10:54:06;;;;;;;;;;;21.10;29.80;;;;;;483278;246;2196;-39
2022/02/14 10:56:08;;;;;;;;;;;21.10;29.80;;;;;;483400;246;1269;-39
2022/02/14 10:58:10;;;;;;;;;;;21.20;29.80;;;;;;483224;246;1289;-39
2022/02/14 11:00:10;;;;;;;;;;;21.20;29.80;;;;;;483064;246;1529;-39
2022/02/14 11:02:12;;;;;;;;;;;21.20;29.70;;;;;;483728;246;1201;-39
2022/02/14 11:04:14;;;;;;;;;;;21.20;29.70;;;;;;483106;246;1115;-39
2022/02/14 11:06:15;;;;;;;;;;;21.20;29.70;;;;;;483097;246;1470;-39
2022/02/14 11:08:16;;;;;;;;;;;21.10;29.70;;;;;;483632;246;1275;-39
2022/02/14 11:10:17;;;;;;;;;;;21.20;29.60;;;;;;483121;246;1221;-39
2022/02/14 11:12:19;;;;;;;;;;;21.20;29.60;;;;;;483090;246;1257;-39
2022/02/14 11:14:20;;;;;;;;;;;21.20;29.60;;;;;;483012;246;2121;-39
2022/02/14 11:16:21;;;;;;;;;;;21.20;29.60;;;;;;483004;246;1687;-39
2022/02/14 11:18:23;;;;;;;;;;;21.30;29.60;;;;;;483112;246;1238;-39
2022/02/14 11:20:24;;;;;;;;;;;21.30;29.60;;;;;;483428;246;1196;-39
2022/02/14 11:22:25;;;;;;;;;;;21.30;29.60;;;;;;483378;246;1228;-39
2022/02/14 11:24:27;;;;;;;;;;;21.20;29.60;;;;;;483468;246;1302;-39
2022/02/14 11:26:28;;;;;;;;;;;21.20;29.60;;;;;;483026;246;1313;-39
2022/02/14 11:28:30;;;;;;;;;;;21.20;29.60;;;;;;483068;246;1104;-39
2022/02/14 11:30:31;;;;;;;;;;;21.20;29.60;;;;;;483307;246;1468;-39
2022/02/14 11:32:38;;;;;;;;;;;21.20;29.60;;;;;;483215;246;1145;-39
2022/02/14 11:34:33;;;;;;;;;;;21.10;29.60;;;;;;482784;246;2110;-39
2022/02/14 11:36:35;;;;;;;;;;;21.20;29.60;;;;;;483068;246;1403;-39
2022/02/14 11:38:36;;;;;;;;;;;21.20;29.60;;;;;;483349;246;1090;-39
2022/02/14 11:40:39;;;;;;;;;;;21.20;29.60;;;;;;483079;246;1483;-39
2022/02/14 11:42:39;;;;;;;;;;;21.20;29.60;;;;;;483138;246;1564;-36
2022/02/14 11:44:41;;;;;;;;;;;21.30;29.60;;;;;;483250;246;1122;-39
2022/02/14 11:46:42;;;;;;;;;;;21.20;29.50;;;;;;483106;246;1894;-39
2022/02/14 11:48:43;;;;;;;;;;;21.10;29.50;;;;;;483314;246;2162;-39
2022/02/14 11:50:44;;;;;;;;;;;21.10;29.50;;;;;;483246;246;1316;-39
2022/02/14 11:52:47;;;;;;;;;;;21.20;29.60;;;;;;483383;246;1142;-39
2022/02/14 11:54:48;;;;;;;;;;;21.20;29.50;;;;;;483314;246;2188;-39
2022/02/14 11:56:49;;;;;;;;;;;21.20;29.50;;;;;;483300;246;2521;-39
2022/02/14 11:58:50;;;;;;;;;;;21.20;29.50;;;;;;483323;246;1160;-39
2022/02/14 12:00:51;;;;;;;;;;;21.20;29.50;;;;;;482993;246;1458;-39
2022/02/14 12:02:53;;;;;;;;;;;21.20;29.50;;;;;;482993;246;1458;-39